createdAt,value
2023-04-22T00:01:10.349Z,37.95
2023-04-22T00:03:38.872Z,18.50
2023-04-22T00:06:06.422Z,3.88
2023-04-22T00:08:33.333Z,1.77
2023-04-22T00:11:00.415Z,12.20
2023-04-22T00:13:27.354Z,40.35
2023-04-22T00:15:54.382Z,4.05
2023-04-22T00:18:21.945Z,3.40
2023-04-22T00:20:48.919Z,5.43
2023-04-22T00:23:15.957Z,149.45
2023-04-22T00:25:43.025Z,59.35
2023-04-22T00:28:09.986Z,3.83
2023-04-22T00:30:37.051Z,11.50
2023-04-22T00:33:04.188Z,5.53
2023-04-22T00:35:31.188Z,39.63
2023-04-22T00:37:58.387Z,92.63
2023-04-22T00:40:25.380Z,3.55
2023-04-22T00:42:52.775Z,6.72
2023-04-22T00:45:21.119Z,3.95
2023-04-22T00:47:49.319Z,3.53
2023-04-22T00:50:16.862Z,18.98
2023-04-22T00:52:43.902Z,68.28
2023-04-22T00:55:12.197Z,13.15
2023-04-22T00:57:40.560Z,12.93
2023-04-22T01:00:10.189Z,5.55
2023-04-22T01:02:38.870Z,2.60
2023-04-22T01:05:09.543Z,71.93
2023-04-22T01:07:36.681Z,8.95
2023-04-22T01:10:04.846Z,5.05
2023-04-22T01:12:31.889Z,15.13
2023-04-22T01:14:58.966Z,2.67
2023-04-22T01:17:26.061Z,3.28
2023-04-22T01:19:53.331Z,1.30
2023-04-22T01:22:21.353Z,22.98
2023-04-22T01:24:49.088Z,1.90
2023-04-22T01:27:16.210Z,3.30
2023-04-22T01:29:43.729Z,5.25
2023-04-22T01:32:11.026Z,4.10
2023-04-22T01:34:38.161Z,2.63
2023-04-22T01:37:07.200Z,2.75
2023-04-22T01:39:35.294Z,2.95
2023-04-22T01:42:03.483Z,1.65
2023-04-22T01:44:30.566Z,3.47
2023-04-22T01:46:57.539Z,3.42
2023-04-22T01:49:24.507Z,2.97
2023-04-22T01:51:51.510Z,6.30
2023-04-22T01:54:20.969Z,5.45
2023-04-22T01:56:53.160Z,9.80
2023-04-22T01:59:21.571Z,3.40
2023-04-22T02:01:50.095Z,3.78
2023-04-22T02:04:17.997Z,1.85
2023-04-22T02:06:45.007Z,3.05
2023-04-22T02:09:11.959Z,2.75
2023-04-22T02:11:39.054Z,1.85
2023-04-22T02:14:06.600Z,0.80
2023-04-22T02:16:33.699Z,2.22
2023-04-22T02:19:00.918Z,2.55
2023-04-22T02:21:34.571Z,2.95
2023-04-22T02:24:01.632Z,4.07
2023-04-22T02:26:28.993Z,4.97
2023-04-22T02:28:55.905Z,4.15
2023-04-22T02:31:22.885Z,3.92
2023-04-22T02:33:49.818Z,4.57
2023-04-22T02:36:17.507Z,3.30
2023-04-22T02:38:46.589Z,6.03
2023-04-22T02:41:15.214Z,4.15
2023-04-22T02:43:46.117Z,4.88
2023-04-22T02:46:16.305Z,3.08
2023-04-22T02:48:43.660Z,3.65
2023-04-22T02:51:11.162Z,3.88
2023-04-22T02:53:38.214Z,5.78
2023-04-22T02:56:05.824Z,5.30
2023-04-22T02:58:33.001Z,3.97
2023-04-22T03:01:00.379Z,5.43
2023-04-22T03:03:27.553Z,4.75
2023-04-22T03:05:54.751Z,5.00
2023-04-22T03:08:22.128Z,5.70
2023-04-22T03:10:49.134Z,7.15
2023-04-22T03:13:16.092Z,6.35
2023-04-22T03:15:43.780Z,5.18
2023-04-22T03:18:10.747Z,2.88
2023-04-22T03:20:38.493Z,4.40
2023-04-22T03:23:07.092Z,6.45
2023-04-22T03:25:34.221Z,3.30
2023-04-22T03:28:01.253Z,5.15
2023-04-22T03:30:28.166Z,7.43
2023-04-22T03:32:56.582Z,6.53
2023-04-22T03:35:35.920Z,6.75
2023-04-22T03:38:03.279Z,9.27
2023-04-22T03:40:33.704Z,7.65
2023-04-22T03:43:04.540Z,6.82
2023-04-22T03:45:32.108Z,6.50
2023-04-22T03:48:13.268Z,4.60
2023-04-22T03:50:46.245Z,6.65
2023-04-22T03:53:13.583Z,5.88
2023-04-22T03:55:40.570Z,5.30
2023-04-22T03:58:07.545Z,4.53
2023-04-22T04:00:34.872Z,6.35
2023-04-22T04:03:09.348Z,8.10
2023-04-22T04:05:37.738Z,8.35
2023-04-22T04:08:04.892Z,5.40
2023-04-22T04:10:32.161Z,5.63
2023-04-22T04:13:00.396Z,6.13
2023-04-22T04:15:31.085Z,7.75
2023-04-22T04:18:01.316Z,13.60
2023-04-22T04:20:31.112Z,7.57
2023-04-22T04:22:58.900Z,9.95
2023-04-22T04:25:26.701Z,6.22
2023-04-22T04:27:54.310Z,9.25
2023-04-22T04:30:21.623Z,8.43
2023-04-22T04:32:53.634Z,8.98
2023-04-22T04:35:20.749Z,10.38
2023-04-22T04:37:53.755Z,7.55
2023-04-22T04:40:21.951Z,8.80
2023-04-22T04:43:08.521Z,13.60
2023-04-22T04:45:48.771Z,10.00
2023-04-22T04:48:24.951Z,10.65
2023-04-22T04:50:55.446Z,12.77
2023-04-22T04:53:24.697Z,15.02
2023-04-22T04:55:51.983Z,13.88
2023-04-22T04:58:23.376Z,13.18
2023-04-22T05:01:03.414Z,16.42
2023-04-22T05:03:30.800Z,13.98
2023-04-22T05:05:58.148Z,18.00
2023-04-22T05:08:25.565Z,13.20
2023-04-22T05:10:58.039Z,13.15
2023-04-22T05:13:26.388Z,8.18
2023-04-22T05:15:54.594Z,9.23
2023-04-22T05:18:22.822Z,8.88
2023-04-22T05:20:49.931Z,12.10
2023-04-22T05:23:18.235Z,14.02
2023-04-22T05:25:46.141Z,11.60
2023-04-22T05:28:14.692Z,15.63
2023-04-22T05:30:48.676Z,15.00
2023-04-22T05:33:15.725Z,14.43
2023-04-22T05:35:42.874Z,16.65
2023-04-22T05:38:11.022Z,18.42
2023-04-22T05:40:40.603Z,16.20
2023-04-22T05:43:10.220Z,14.57
2023-04-22T05:45:39.831Z,14.35
2023-04-22T05:48:08.493Z,19.05
2023-04-22T05:50:41.361Z,16.60
2023-04-22T05:53:09.791Z,16.67
2023-04-22T05:55:37.085Z,14.30
2023-04-22T05:58:07.284Z,14.60
2023-04-22T06:00:54.505Z,19.10
2023-04-22T06:03:50.981Z,12.80
2023-04-22T06:06:18.625Z,14.68
2023-04-22T06:08:47.399Z,14.23
2023-04-22T06:11:14.376Z,17.60
2023-04-22T06:13:41.371Z,25.08
2023-04-22T06:18:43.473Z,22.80
2023-04-22T06:21:12.403Z,20.80
2023-04-22T06:23:40.332Z,23.73
2023-04-22T06:26:07.326Z,23.00
2023-04-22T06:28:35.920Z,24.13
2023-04-22T06:31:07.746Z,24.67
2023-04-22T06:33:35.772Z,20.38
2023-04-22T06:36:04.880Z,24.13
2023-04-22T06:38:31.863Z,22.48
2023-04-22T06:41:27.518Z,23.25
2023-04-22T06:43:59.589Z,31.48
2023-04-22T06:46:44.825Z,21.67
2023-04-22T06:49:23.939Z,26.25
2023-04-22T06:52:26.256Z,23.05
2023-04-22T06:54:56.990Z,26.55
2023-04-22T06:57:24.080Z,27.23
2023-04-22T06:59:51.370Z,28.73
2023-04-22T07:02:18.811Z,21.65
2023-04-22T07:04:45.881Z,21.00
2023-04-22T07:07:13.997Z,23.55
2023-04-22T07:09:41.913Z,20.98
2023-04-22T07:12:09.277Z,22.58
2023-04-22T07:14:37.290Z,16.15
2023-04-22T07:17:04.255Z,19.80
2023-04-22T07:19:33.213Z,23.67
2023-04-22T07:22:03.214Z,18.20
2023-04-22T07:24:30.898Z,19.05
2023-04-22T07:26:58.450Z,22.45
2023-04-22T07:29:25.489Z,23.25
2023-04-22T07:31:52.518Z,18.73
2023-04-22T07:34:19.602Z,18.42
2023-04-22T07:36:46.661Z,19.48
2023-04-22T07:39:13.567Z,22.85
2023-04-22T07:41:40.663Z,17.50
2023-04-22T07:44:07.686Z,18.15
2023-04-22T07:46:34.996Z,16.08
2023-04-22T07:49:01.975Z,14.90
2023-04-22T07:51:28.930Z,13.63
2023-04-22T07:53:55.888Z,16.02
2023-04-22T07:56:22.871Z,15.40
2023-04-22T07:58:49.832Z,13.90
2023-04-22T08:01:18.714Z,11.30
2023-04-22T08:03:47.082Z,13.65
2023-04-22T08:06:14.154Z,14.77
2023-04-22T08:08:41.119Z,15.10
2023-04-22T08:11:08.241Z,13.95
2023-04-22T08:13:35.277Z,14.18
2023-04-22T08:16:07.360Z,11.77
2023-04-22T08:18:35.161Z,12.32
2023-04-22T08:21:02.611Z,12.02
2023-04-22T08:23:29.539Z,9.32
2023-04-22T08:25:56.491Z,10.38
2023-04-22T08:28:23.523Z,8.25
2023-04-22T08:30:50.622Z,9.05
2023-04-22T08:33:17.666Z,7.68
2023-04-22T08:35:44.668Z,6.90
2023-04-22T08:38:11.662Z,7.00
2023-04-22T08:40:42.373Z,8.57
2023-04-22T08:43:09.812Z,6.80
2023-04-22T08:45:40.770Z,8.52
2023-04-22T08:48:09.371Z,8.55
2023-04-22T08:50:41.260Z,8.63
2023-04-22T08:53:08.199Z,8.40
2023-04-22T08:55:36.390Z,8.75
2023-04-22T08:58:06.149Z,9.73
2023-04-22T09:00:34.715Z,6.47
2023-04-22T09:03:03.624Z,8.63
2023-04-22T09:05:34.371Z,7.50
2023-04-22T09:08:03.262Z,9.10
2023-04-22T09:10:33.000Z,6.70
2023-04-22T09:13:03.730Z,8.60
2023-04-22T09:15:30.994Z,7.75
2023-04-22T09:17:58.678Z,11.65
2023-04-22T09:20:30.240Z,6.20
2023-04-22T09:23:03.915Z,7.85
2023-04-22T09:25:33.522Z,6.60
2023-04-22T09:28:00.693Z,6.32
2023-04-22T09:30:37.568Z,5.22
2023-04-22T09:33:06.961Z,5.18
2023-04-22T09:35:37.602Z,6.50
2023-04-22T09:38:11.505Z,6.30
2023-04-22T09:40:43.376Z,7.35
2023-04-22T09:43:11.511Z,6.30
2023-04-22T09:45:43.709Z,6.53
2023-04-22T09:48:17.359Z,4.78
2023-04-22T09:50:48.167Z,4.63
2023-04-22T09:53:18.824Z,5.03
2023-04-22T09:55:49.884Z,4.68
2023-04-22T09:58:19.873Z,6.93
2023-04-22T10:00:54.921Z,5.45
2023-04-22T10:03:22.051Z,7.60
2023-04-22T10:05:49.155Z,6.03
2023-04-22T10:08:17.284Z,6.70
2023-04-22T10:10:46.657Z,7.13
2023-04-22T10:13:13.784Z,4.50
2023-04-22T10:15:50.735Z,5.20
2023-04-22T10:18:23.521Z,6.45
2023-04-22T10:20:51.543Z,4.82
2023-04-22T10:23:24.281Z,6.65
2023-04-22T10:25:55.158Z,6.65
2023-04-22T10:28:24.712Z,7.13
2023-04-22T10:30:51.815Z,4.35
2023-04-22T10:33:21.740Z,7.78
2023-04-22T10:36:17.881Z,5.75
2023-04-22T10:41:23.896Z,5.45
2023-04-22T10:44:06.170Z,6.70
2023-04-22T10:46:40.176Z,4.97
2023-04-22T10:49:09.719Z,6.35
2023-04-22T10:51:48.033Z,6.25
2023-04-22T10:54:32.180Z,6.97
2023-04-22T10:57:15.464Z,6.55
2023-04-22T11:02:18.097Z,8.25
2023-04-22T11:04:45.647Z,5.43
2023-04-22T11:07:27.241Z,9.85
2023-04-22T11:10:44.442Z,4.68
2023-04-22T11:13:17.826Z,7.63
2023-04-22T11:15:48.394Z,7.00
2023-04-22T11:18:20.808Z,5.55
2023-04-22T11:20:49.383Z,5.05
2023-04-22T11:23:28.019Z,7.63
2023-04-22T11:26:13.310Z,6.95
2023-04-22T11:28:49.223Z,6.75
2023-04-22T11:31:16.253Z,8.00
2023-04-22T11:33:43.811Z,6.40
2023-04-22T11:36:12.017Z,9.70
2023-04-22T11:38:39.248Z,6.80
2023-04-22T11:41:06.383Z,6.57
2023-04-22T11:43:33.385Z,9.88
2023-04-22T11:46:00.594Z,7.78
2023-04-22T11:48:27.694Z,10.57
2023-04-22T11:51:11.124Z,11.18
2023-04-22T11:53:40.126Z,16.75
2023-04-22T11:56:07.331Z,13.77
2023-04-22T11:58:38.972Z,6.95
2023-04-22T12:01:06.301Z,9.27
2023-04-22T12:03:34.628Z,7.68
2023-04-22T12:06:05.036Z,7.55
2023-04-22T12:08:36.719Z,14.73
2023-04-22T12:11:07.779Z,10.00
2023-04-22T12:13:43.151Z,11.38
2023-04-22T12:18:55.588Z,9.50
2023-04-22T12:21:28.395Z,7.38
2023-04-22T12:23:59.303Z,5.97
2023-04-22T12:26:27.826Z,8.65
2023-04-22T12:28:58.173Z,9.43
2023-04-22T12:31:26.371Z,7.35
2023-04-22T12:33:54.310Z,11.27
2023-04-22T12:36:21.589Z,8.23
2023-04-22T12:38:48.954Z,11.57
2023-04-22T12:41:16.572Z,8.80
2023-04-22T12:43:43.659Z,7.32
2023-04-22T12:46:11.224Z,6.00
2023-04-22T12:48:38.252Z,6.97
2023-04-22T12:51:07.021Z,7.60
2023-04-22T12:53:34.423Z,7.22
2023-04-22T12:56:01.549Z,10.50
2023-04-22T12:58:28.668Z,9.13
2023-04-22T13:00:55.644Z,8.05
2023-04-22T13:03:22.889Z,6.88
2023-04-22T13:05:49.932Z,8.32
2023-04-22T13:08:17.961Z,7.30
2023-04-22T13:10:44.998Z,7.03
2023-04-22T13:15:41.942Z,8.85
2023-04-22T13:18:09.133Z,5.47
2023-04-22T13:20:36.257Z,8.15
2023-04-22T13:23:04.702Z,7.03
2023-04-22T13:25:31.969Z,8.07
2023-04-22T13:27:59.032Z,7.53
2023-04-22T13:30:26.216Z,9.45
2023-04-22T13:32:53.281Z,11.02
2023-04-22T13:35:20.730Z,6.38
2023-04-22T13:37:47.748Z,7.90
2023-04-22T13:40:15.289Z,7.95
2023-04-22T13:42:44.282Z,9.32
2023-04-22T13:45:11.367Z,9.35
2023-04-22T13:47:38.470Z,9.43
2023-04-22T13:50:06.558Z,11.05
2023-04-22T13:52:33.995Z,10.13
2023-04-22T13:55:06.045Z,9.70
2023-04-22T13:57:33.000Z,8.20
2023-04-22T14:00:00.225Z,11.93
2023-04-22T14:02:27.460Z,11.95
2023-04-22T14:04:54.525Z,14.02
2023-04-22T14:07:21.559Z,14.73
2023-04-22T14:09:48.505Z,12.95
2023-04-22T14:12:15.645Z,16.15
2023-04-22T14:14:42.624Z,13.75
2023-04-22T14:17:09.620Z,15.18
2023-04-22T14:19:38.912Z,15.45
2023-04-22T14:22:06.651Z,14.73
2023-04-22T14:24:33.892Z,15.05
2023-04-22T14:27:01.812Z,15.25
2023-04-22T14:29:29.821Z,17.27
2023-04-22T14:31:58.201Z,15.25
2023-04-22T14:34:26.891Z,15.05
2023-04-22T14:36:54.191Z,17.42
2023-04-22T14:39:21.463Z,15.13
2023-04-22T14:41:48.556Z,18.27
2023-04-22T14:44:15.796Z,15.68
2023-04-22T14:46:42.869Z,18.52
2023-04-22T14:49:09.821Z,14.43
2023-04-22T14:51:36.823Z,14.07
2023-04-22T14:54:04.757Z,11.52
2023-04-22T14:56:31.862Z,14.35
2023-04-22T14:58:58.773Z,14.85
2023-04-22T15:01:26.070Z,14.10
2023-04-22T15:03:53.369Z,14.10
2023-04-22T15:06:20.667Z,13.35
2023-04-22T15:08:47.711Z,12.77
2023-04-22T15:11:14.775Z,12.55
2023-04-22T15:13:41.685Z,12.75
2023-04-22T15:16:08.763Z,13.15
2023-04-22T15:18:36.117Z,14.35
2023-04-22T15:21:05.757Z,17.25
2023-04-22T15:23:32.749Z,16.63
2023-04-22T15:25:59.813Z,14.45
2023-04-22T15:28:26.909Z,14.52
2023-04-22T15:30:54.158Z,14.93
2023-04-22T15:33:21.243Z,13.65
2023-04-22T15:35:49.984Z,13.43
2023-04-22T15:38:17.757Z,14.30
2023-04-22T15:40:44.763Z,13.32
2023-04-22T15:43:11.973Z,13.45
2023-04-22T15:45:39.175Z,16.52
2023-04-22T15:48:06.229Z,11.93
2023-04-22T15:50:33.262Z,14.02
2023-04-22T15:53:00.287Z,16.67
2023-04-22T15:55:27.228Z,14.38
2023-04-22T15:57:54.133Z,16.63
2023-04-22T16:00:21.270Z,18.13
2023-04-22T16:02:55.397Z,15.02
2023-04-22T16:05:24.810Z,15.05
2023-04-22T16:07:53.079Z,17.20
2023-04-22T16:10:20.775Z,14.95
2023-04-22T16:12:47.790Z,15.95
2023-04-22T16:15:14.874Z,16.38
2023-04-22T16:17:43.110Z,15.10
2023-04-22T16:20:10.554Z,18.08
2023-04-22T16:22:37.532Z,15.23
2023-04-22T16:25:05.144Z,17.60
2023-04-22T16:27:32.517Z,16.73
2023-04-22T16:29:59.559Z,20.52
2023-04-22T16:32:26.830Z,17.02
2023-04-22T16:34:53.759Z,15.40
2023-04-22T16:37:20.744Z,15.07
2023-04-22T16:39:47.771Z,16.77
2023-04-22T16:42:14.750Z,15.80
2023-04-22T16:44:41.676Z,15.07
2023-04-22T16:47:08.594Z,16.30
2023-04-22T16:49:35.584Z,16.23
2023-04-22T16:52:02.636Z,15.85
2023-04-22T16:54:29.593Z,15.63
2023-04-22T16:56:57.547Z,18.65
2023-04-22T16:59:24.522Z,15.38
2023-04-22T17:01:51.827Z,13.75
2023-04-22T17:04:18.978Z,14.50
2023-04-22T17:06:46.270Z,15.88
2023-04-22T17:09:13.222Z,13.35
2023-04-22T17:11:40.334Z,14.95
2023-04-22T17:14:07.680Z,15.38
2023-04-22T17:16:34.782Z,15.18
2023-04-22T17:19:01.726Z,17.52
2023-04-22T17:21:29.780Z,15.43
2023-04-22T17:23:58.641Z,13.70
2023-04-22T17:26:25.986Z,15.88
2023-04-22T17:28:52.948Z,13.90
2023-04-22T17:31:20.434Z,13.05
2023-04-22T17:33:47.817Z,14.65
2023-04-22T17:36:14.956Z,12.60
2023-04-22T17:38:41.901Z,10.40
2023-04-22T17:41:08.790Z,11.95
2023-04-22T17:43:35.800Z,12.32
2023-04-22T17:46:03.055Z,8.43
2023-04-22T17:48:29.950Z,7.60
2023-04-22T17:50:56.967Z,8.65
2023-04-22T17:53:23.872Z,11.75
2023-04-22T17:55:50.858Z,9.95
2023-04-22T17:58:19.043Z,10.32
2023-04-22T18:00:46.279Z,12.38
2023-04-22T18:03:13.409Z,14.32
2023-04-22T18:05:43.255Z,13.23
2023-04-22T18:08:10.970Z,13.57
2023-04-22T18:10:38.753Z,16.98
2023-04-22T18:13:06.563Z,19.00
2023-04-22T18:15:33.531Z,15.95
2023-04-22T18:18:00.429Z,16.27
2023-04-22T18:20:27.378Z,17.33
2023-04-22T18:22:56.362Z,16.33
2023-04-22T18:25:24.227Z,16.25
2023-04-22T18:27:55.030Z,18.25
2023-04-22T18:30:25.179Z,15.82
2023-04-22T18:32:52.417Z,17.20
2023-04-22T18:35:20.165Z,19.75
2023-04-22T18:37:47.252Z,17.30
2023-04-22T18:40:14.658Z,16.42
2023-04-22T18:42:44.785Z,18.83
2023-04-22T18:45:12.426Z,18.05
2023-04-22T18:47:39.577Z,16.60
2023-04-22T18:50:07.472Z,18.30
2023-04-22T18:52:34.558Z,16.05
2023-04-22T18:55:01.465Z,17.75
2023-04-22T18:57:28.448Z,15.77
2023-04-22T18:59:55.631Z,17.52
2023-04-22T19:02:22.715Z,18.10
2023-04-22T19:04:49.861Z,18.98
2023-04-22T19:07:16.851Z,18.02
2023-04-22T19:09:43.833Z,19.95
2023-04-22T19:12:14.717Z,17.27
2023-04-22T19:14:42.269Z,19.70
2023-04-22T19:17:09.710Z,23.98
2023-04-22T19:19:36.642Z,21.30
2023-04-22T19:22:03.713Z,27.17
2023-04-22T19:24:33.501Z,24.05
2023-04-22T19:27:02.700Z,25.92
2023-04-22T19:29:30.114Z,25.45
2023-04-22T19:31:57.382Z,29.67
2023-04-22T19:34:24.444Z,27.98
2023-04-22T19:36:51.398Z,27.73
2023-04-22T19:39:18.372Z,31.98
2023-04-22T19:41:45.421Z,29.73
2023-04-22T19:44:12.480Z,32.55
2023-04-22T19:46:39.545Z,32.90
2023-04-22T19:49:07.130Z,34.92
2023-04-22T19:51:34.964Z,33.97
2023-04-22T19:54:02.998Z,36.75
2023-04-22T19:56:30.145Z,34.75
2023-04-22T19:58:57.361Z,33.97
2023-04-22T20:01:24.815Z,38.03
2023-04-22T20:03:53.049Z,31.17
2023-04-22T20:06:22.724Z,34.13
2023-04-22T20:08:53.588Z,35.45
2023-04-22T20:11:21.662Z,32.70
2023-04-22T20:13:50.101Z,36.53
2023-04-22T20:16:19.365Z,37.28
2023-04-22T20:18:46.625Z,33.88
2023-04-22T20:21:14.753Z,38.10
2023-04-22T20:23:42.852Z,38.63
2023-04-22T20:26:10.401Z,40.67
2023-04-22T20:28:51.828Z,40.92
2023-04-22T20:31:20.437Z,42.83
2023-04-22T20:33:47.626Z,42.33
2023-04-22T20:36:18.047Z,45.15
2023-04-22T20:38:48.577Z,41.83
2023-04-22T20:41:20.104Z,40.33
2023-04-22T20:43:47.312Z,48.83
2023-04-22T20:46:14.832Z,43.22
2023-04-22T20:48:42.555Z,41.88
2023-04-22T20:51:09.545Z,47.85
2023-04-22T20:53:36.649Z,45.15
2023-04-22T20:56:05.054Z,49.75
2023-04-22T20:58:33.304Z,51.45
2023-04-22T21:01:00.388Z,50.33
2023-04-22T21:03:27.883Z,49.75
2023-04-22T21:05:56.472Z,51.30
2023-04-22T21:08:25.711Z,47.97
2023-04-22T21:10:55.179Z,52.65
2023-04-22T21:13:23.362Z,51.78
2023-04-22T21:16:01.700Z,51.03
2023-04-22T21:18:29.887Z,48.17
2023-04-22T21:20:57.080Z,53.00
2023-04-22T21:23:25.369Z,49.80
2023-04-22T21:26:00.035Z,56.33
2023-04-22T21:28:27.891Z,52.63
2023-04-22T21:30:55.634Z,49.75
2023-04-22T21:33:23.763Z,51.55
2023-04-22T21:35:50.814Z,48.17
2023-04-22T21:38:19.592Z,52.10
2023-04-22T21:40:50.273Z,47.85
2023-04-22T21:43:17.252Z,45.72
2023-04-22T21:45:44.188Z,49.47
2023-04-22T21:48:11.123Z,42.75
2023-04-22T21:50:38.173Z,49.50
2023-04-22T21:53:05.367Z,52.63
2023-04-22T21:55:32.315Z,48.78
2023-04-22T21:57:59.285Z,51.55
2023-04-22T22:00:26.291Z,49.58
2023-04-22T22:02:53.538Z,49.30
2023-04-22T22:05:20.843Z,50.55
2023-04-22T22:07:48.917Z,43.15
2023-04-22T22:10:22.494Z,44.00
2023-04-22T22:12:50.566Z,47.92
2023-04-22T22:15:17.843Z,54.25
2023-04-22T22:17:45.612Z,50.42
2023-04-22T22:20:16.791Z,55.83
2023-04-22T22:22:44.612Z,54.17
2023-04-22T22:25:16.283Z,60.70
2023-04-22T22:27:48.933Z,39.67
2023-04-22T22:30:18.540Z,34.60
2023-04-22T22:32:45.804Z,38.78
2023-04-22T22:35:13.077Z,40.22
2023-04-22T22:37:40.240Z,41.72
2023-04-22T22:40:08.815Z,50.97
2023-04-22T22:42:36.137Z,50.95
2023-04-22T22:45:05.094Z,53.60
2023-04-22T22:47:32.204Z,57.65
2023-04-22T22:49:59.251Z,52.50
2023-04-22T22:52:26.299Z,67.25
2023-04-22T22:54:53.288Z,72.03
2023-04-22T22:57:20.905Z,68.05
2023-04-22T22:59:47.841Z,77.82
2023-04-22T23:02:15.028Z,77.13
2023-04-22T23:04:43.394Z,76.70
2023-04-22T23:07:10.716Z,74.93
2023-04-22T23:09:37.633Z,72.80
2023-04-22T23:12:05.393Z,76.60
2023-04-22T23:14:33.381Z,72.28
2023-04-22T23:17:00.559Z,71.07
2023-04-22T23:19:28.568Z,82.90
2023-04-22T23:21:56.391Z,80.25
2023-04-22T23:24:23.813Z,76.00
2023-04-22T23:26:51.244Z,81.97
2023-04-22T23:29:19.562Z,76.78
2023-04-22T23:31:47.233Z,75.43
2023-04-22T23:34:16.856Z,80.40
2023-04-22T23:36:45.411Z,81.97
2023-04-22T23:39:12.444Z,71.53
2023-04-22T23:41:39.338Z,67.43
2023-04-22T23:44:06.511Z,75.40
2023-04-22T23:46:33.525Z,73.03
2023-04-22T23:49:01.460Z,75.53
2023-04-22T23:51:28.750Z,78.78
2023-04-22T23:53:55.821Z,78.53
2023-04-22T23:56:23.164Z,79.65
2023-04-22T23:58:51.153Z,75.35
